Time;durP1;ratioP1;P1;durP2;ratioP2;P2;SDS_P1;SDS_P2;PMS_P1;PMS_P2;Temp;Humidity;BMP_temperature;BMP_pressure;BME280_temperature;BME280_humidity;BME280_pressure;Samples;Min_cycle;Max_cycle;Signal;HPM_P1;HPM_P2
2022/12/24 00:00:11;;;;;;;4.75;0.82;;;20.20;99.90;;;;;;4899404;29;20224;-68
2022/12/24 00:02:38;;;;;;;2.78;0.75;;;20.20;99.90;;;;;;4899773;29;20205;-68
2022/12/24 00:05:05;;;;;;;4.03;0.70;;;20.20;99.90;;;;;;4899402;29;20665;-69
2022/12/24 05:36:28;;;;;;;4.93;1.27;;;20.50;99.90;;;;;;4878312;29;20244;-68
2022/12/24 05:38:54;;;;;;;0.93;0.40;;;20.20;99.90;;;;;;4879807;29;20551;-67
2022/12/24 05:41:21;;;;;;;3.40;0.60;;;20.20;99.90;;;;;;4879703;29;20230;-67
2022/12/24 05:43:48;;;;;;;1.50;0.50;;;20.20;99.90;;;;;;4879718;29;20206;-68
2022/12/24 05:46:17;;;;;;;2.15;0.63;;;20.20;99.90;;;;;;4879727;29;20210;-67
2022/12/24 05:48:44;;;;;;;1.85;0.50;;;20.20;99.90;;;;;;4924184;23;20225;-67
2022/12/24 05:51:13;;;;;;;3.90;0.60;;;20.20;99.90;;;;;;4898599;29;20210;-67
2022/12/24 05:53:41;;;;;;;1.05;0.40;;;20.20;99.90;;;;;;4898330;29;20212;-67
2022/12/24 05:56:10;;;;;;;4.88;0.60;;;20.10;99.90;;;;;;4898322;29;20209;-67
2022/12/24 05:58:37;;;;;;;1.45;0.55;;;20.10;99.90;;;;;;4898218;29;20233;-67
2022/12/24 06:01:05;;;;;;;0.82;0.60;;;20.10;99.90;;;;;;4898476;29;20237;-67
2022/12/24 06:03:33;;;;;;;2.17;0.57;;;20.20;99.90;;;;;;4898256;29;20261;-67
2022/12/24 06:06:01;;;;;;;1.25;0.60;;;20.10;99.90;;;;;;4897912;29;20562;-67
2022/12/24 06:08:28;;;;;;;1.23;0.57;;;20.10;99.90;;;;;;4898228;29;20285;-67
2022/12/24 06:10:57;;;;;;;4.22;0.70;;;20.20;99.90;;;;;;4898425;29;20233;-67
2022/12/24 06:13:24;;;;;;;2.15;0.70;;;20.10;99.90;;;;;;4898173;29;20243;-67
2022/12/24 06:15:51;;;;;;;3.78;0.50;;;20.10;99.90;;;;;;4898110;29;20244;-67
2022/12/24 06:18:18;;;;;;;4.88;0.85;;;20.10;99.90;;;;;;4898062;29;20225;-67
2022/12/24 06:20:45;;;;;;;2.20;0.40;;;20.20;99.90;;;;;;4898039;29;20228;-67
2022/12/24 06:23:11;;;;;;;4.88;0.55;;;20.10;99.90;;;;;;4898091;29;20233;-67
2022/12/24 06:25:38;;;;;;;4.88;0.68;;;20.10;99.90;;;;;;4898062;29;20206;-67
2022/12/24 06:28:06;;;;;;;2.83;0.80;;;20.10;99.90;;;;;;4897993;29;20232;-67
2022/12/24 06:30:33;;;;;;;7.22;0.70;;;20.10;99.90;;;;;;4898034;29;20206;-67
2022/12/24 06:33:00;;;;;;;3.58;0.63;;;20.10;99.90;;;;;;4898247;29;20209;-67
2022/12/24 06:35:26;;;;;;;3.03;0.50;;;20.10;99.90;;;;;;4898803;29;20209;-67
2022/12/24 06:37:53;;;;;;;1.15;0.47;;;20.10;99.90;;;;;;4901270;29;20206;-67
2022/12/24 06:40:20;;;;;;;3.20;0.80;;;20.10;99.90;;;;;;4900919;29;20697;-66
2022/12/24 06:42:46;;;;;;;7.53;0.85;;;20.20;99.90;;;;;;4901300;29;20213;-67
2022/12/24 06:45:14;;;;;;;9.40;0.80;;;20.20;99.90;;;;;;4901273;29;20216;-67
2022/12/24 06:47:41;;;;;;;1.95;0.60;;;20.20;99.90;;;;;;4901393;29;20205;-67
2022/12/24 06:50:09;;;;;;;4.88;0.85;;;20.20;99.90;;;;;;4900808;29;20236;-67
2022/12/24 06:52:35;;;;;;;6.35;0.75;;;20.20;99.90;;;;;;4901167;29;20209;-67
2022/12/24 06:55:02;;;;;;;4.45;0.60;;;20.20;99.90;;;;;;4901042;29;20206;-67
2022/12/24 06:57:30;;;;;;;1.70;0.60;;;20.20;99.90;;;;;;4900702;29;20674;-67
2022/12/24 06:59:57;;;;;;;0.60;0.60;;;20.20;99.90;;;;;;4900787;29;20616;-66
2022/12/24 07:02:25;;;;;;;2.92;0.75;;;20.20;99.90;;;;;;4900894;29;20212;-66
2022/12/24 07:04:51;;;;;;;1.48;0.52;;;20.20;99.90;;;;;;4900878;29;20205;-66
2022/12/24 07:07:18;;;;;;;1.30;0.50;;;20.20;99.90;;;;;;4900795;29;20574;-66
2022/12/24 07:09:45;;;;;;;1.00;0.57;;;20.20;99.90;;;;;;4900733;29;20233;-67
2022/12/24 07:12:11;;;;;;;3.10;0.52;;;20.10;99.90;;;;;;4900719;29;20201;-66
2022/12/24 07:14:38;;;;;;;3.53;0.60;;;20.20;99.90;;;;;;4900679;29;20209;-66
2022/12/24 07:17:05;;;;;;;1.65;0.60;;;20.10;99.90;;;;;;4900341;29;20212;-66
2022/12/24 07:19:34;;;;;;;3.40;0.47;;;20.10;99.90;;;;;;4902381;29;20248;-66
2022/12/24 07:22:00;;;;;;;1.33;0.60;;;20.10;99.90;;;;;;4900486;29;20315;-67
2022/12/24 07:24:27;;;;;;;6.88;0.77;;;20.00;99.90;;;;;;4900501;29;20216;-66
2022/12/24 07:26:54;;;;;;;2.72;0.73;;;20.10;99.90;;;;;;4900501;29;20209;-66
2022/12/24 07:29:21;;;;;;;1.50;0.60;;;20.00;99.90;;;;;;4900081;29;20717;-67
2022/12/24 07:31:47;;;;;;;3.30;0.90;;;20.00;99.90;;;;;;4900351;29;20232;-67
2022/12/24 07:34:14;;;;;;;2.10;0.70;;;20.00;99.90;;;;;;4900044;29;20669;-67
2022/12/24 07:36:42;;;;;;;4.80;0.80;;;20.00;99.90;;;;;;4899969;29;20212;-67
2022/12/24 07:39:09;;;;;;;1.75;1.05;;;20.10;99.90;;;;;;4900158;29;20250;-67
2022/12/24 07:41:35;;;;;;;2.35;0.90;;;20.00;99.90;;;;;;4900169;29;20222;-67
2022/12/24 07:44:02;;;;;;;1.55;0.57;;;20.00;99.90;;;;;;4900188;29;20202;-67
2022/12/24 07:46:29;;;;;;;4.05;0.73;;;20.10;99.90;;;;;;4899657;29;20209;-67
2022/12/24 07:48:55;;;;;;;4.60;0.77;;;20.10;99.90;;;;;;4899583;29;20725;-67
2022/12/24 07:51:22;;;;;;;0.73;0.70;;;20.20;99.90;;;;;;4900003;29;20205;-67
2022/12/24 07:53:50;;;;;;;4.45;0.85;;;20.20;99.90;;;;;;4899987;29;20233;-67
2022/12/24 07:56:17;;;;;;;1.77;0.65;;;20.20;99.90;;;;;;4899934;29;20216;-66
2022/12/24 07:58:44;;;;;;;1.95;0.80;;;20.20;99.90;;;;;;4899536;29;20713;-66
2022/12/24 08:01:11;;;;;;;4.38;0.90;;;20.20;99.90;;;;;;4899403;29;20566;-66
2022/12/24 08:03:37;;;;;;;5.47;1.40;;;20.20;99.90;;;;;;4899765;29;20206;-66
2022/12/24 08:06:05;;;;;;;3.13;1.15;;;20.20;99.90;;;;;;4899711;29;20210;-67
2022/12/24 08:08:31;;;;;;;8.00;1.00;;;20.20;99.90;;;;;;4899338;29;20228;-67
2022/12/24 08:11:03;;;;;;;2.25;1.08;;;20.20;99.90;;;;;;4899674;29;20253;-67
2022/12/24 08:13:30;;;;;;;5.43;0.95;;;20.20;99.90;;;;;;4899648;29;20190;-67
2022/12/24 08:15:57;;;;;;;5.65;1.00;;;20.20;99.90;;;;;;4899603;29;20584;-67
2022/12/24 08:18:23;;;;;;;3.22;0.93;;;20.20;99.90;;;;;;4899144;29;20225;-67
2022/12/24 08:20:51;;;;;;;5.63;1.00;;;20.20;99.90;;;;;;4899646;29;20221;-68
2022/12/24 08:23:18;;;;;;;7.53;1.00;;;20.20;99.90;;;;;;4899061;29;20581;-66
2022/12/24 08:25:46;;;;;;;7.80;1.08;;;20.10;99.90;;;;;;4899390;29;20201;-66
2022/12/24 08:28:16;;;;;;;4.28;0.93;;;20.20;99.90;;;;;;4900328;29;20233;-67
2022/12/24 08:30:43;;;;;;;2.97;0.85;;;20.10;99.90;;;;;;4898981;29;20700;-66
2022/12/24 08:33:10;;;;;;;2.13;0.85;;;20.20;99.90;;;;;;4898949;29;20725;-66
2022/12/24 08:35:37;;;;;;;3.95;0.95;;;20.20;99.90;;;;;;4899283;29;20193;-67
2022/12/24 08:38:03;;;;;;;5.55;1.20;;;20.30;99.90;;;;;;4899092;29;20225;-67
2022/12/24 08:40:30;;;;;;;6.82;1.00;;;20.20;99.90;;;;;;4899089;29;20232;-66
2022/12/24 08:42:57;;;;;;;1.13;0.88;;;20.20;99.90;;;;;;4899082;29;20205;-67
2022/12/24 08:45:25;;;;;;;5.60;0.95;;;21.50;99.90;;;;;;4899070;29;20212;-66
2022/12/24 08:47:51;;;;;;;6.93;0.90;;;20.20;99.90;;;;;;4898970;29;20205;-67
2022/12/24 08:50:18;;;;;;;5.68;1.10;;;20.20;99.90;;;;;;4899012;29;20283;-67
2022/12/24 08:52:45;;;;;;;1.48;0.70;;;20.10;99.90;;;;;;4898930;29;20209;-68
2022/12/24 08:55:12;;;;;;;3.03;0.90;;;20.20;99.90;;;;;;4898892;29;20186;-69
2022/12/24 08:57:38;;;;;;;4.20;0.95;;;20.20;99.90;;;;;;4898353;29;20216;-69
2022/12/24 09:00:07;;;;;;;9.55;0.82;;;20.20;99.90;;;;;;4898543;29;20226;-69
2022/12/24 09:02:35;;;;;;;3.10;0.90;;;20.20;99.90;;;;;;4898735;29;20221;-68
2022/12/24 09:05:02;;;;;;;2.75;0.88;;;20.20;99.90;;;;;;4898771;29;20232;-70
2022/12/24 09:07:29;;;;;;;4.90;1.40;;;20.30;99.90;;;;;;4898744;29;20213;-70
2022/12/24 09:09:55;;;;;;;1.90;0.63;;;20.30;99.90;;;;;;4898897;29;20257;-69
2022/12/24 09:12:22;;;;;;;7.05;0.80;;;20.30;99.90;;;;;;4898705;29;20261;-69
2022/12/24 09:14:50;;;;;;;2.70;0.75;;;20.30;99.90;;;;;;4898654;29;20201;-69
2022/12/24 09:17:17;;;;;;;3.63;0.93;;;20.30;99.90;;;;;;4898351;29;20692;-70
2022/12/24 09:19:45;;;;;;;1.42;0.82;;;20.30;99.90;;;;;;4898543;29;20232;-70
2022/12/24 09:22:12;;;;;;;3.45;1.00;;;20.20;99.90;;;;;;4898473;29;20229;-69
2022/12/24 09:24:39;;;;;;;3.30;1.33;;;20.30;99.90;;;;;;4898528;29;20205;-71
2022/12/24 09:27:05;;;;;;;4.88;1.25;;;20.30;99.90;;;;;;4898794;29;20213;-70
2022/12/24 09:29:32;;;;;;;4.93;1.20;;;20.30;99.90;;;;;;4898181;29;20705;-70
2022/12/24 09:31:59;;;;;;;8.73;0.90;;;20.20;99.90;;;;;;4898487;29;20292;-70
2022/12/24 09:34:26;;;;;;;3.97;1.05;;;20.20;99.90;;;;;;4898253;29;20202;-71
2022/12/24 09:36:54;;;;;;;4.43;1.35;;;20.20;99.90;;;;;;4898500;29;20206;-71
2022/12/24 09:39:21;;;;;;;2.80;1.52;;;20.20;99.90;;;;;;4898420;29;20233;-71
2022/12/24 09:41:55;;;;;;;2.90;1.70;;;20.20;99.90;;;;;;4898387;29;20229;-69
2022/12/24 09:44:33;;;;;;;12.18;2.95;;;20.20;99.90;;;;;;4898461;29;20560;-69
2022/12/24 09:47:03;;;;;;;16.88;3.17;;;20.20;99.90;;;;;;4898411;29;20198;-70
2022/12/24 09:49:37;;;;;;;18.40;3.03;;;20.20;99.90;;;;;;4898257;29;20727;-70
2022/12/24 09:52:10;;;;;;;16.50;2.83;;;20.20;99.90;;;;;;4898412;29;20186;-71
2022/12/24 09:54:39;;;;;;;22.25;5.07;;;20.30;99.90;;;;;;4898177;29;20595;-70
2022/12/24 09:57:14;;;;;;;27.48;5.28;;;20.30;99.90;;;;;;4898099;29;20205;-72
2022/12/24 09:59:44;;;;;;;25.55;4.50;;;20.30;99.90;;;;;;4898285;29;20225;-73
2022/12/24 10:02:13;;;;;;;20.98;5.28;;;20.30;99.90;;;;;;4898270;29;20225;-73
2022/12/24 10:04:41;;;;;;;26.88;9.35;;;20.30;99.90;;;;;;4898266;29;20340;-72
2022/12/24 10:07:25;;;;;;;16.13;5.72;;;20.20;99.90;;;;;;4898249;29;20216;-73
2022/12/24 10:10:00;;;;;;;22.90;5.38;;;19.80;99.90;;;;;;4899687;29;20225;-72
2022/12/24 10:12:34;;;;;;;18.50;5.45;;;19.60;99.90;;;;;;4902271;29;20196;-73
2022/12/24 10:15:09;;;;;;;20.23;4.53;;;19.70;99.90;;;;;;4901991;29;20288;-69
2022/12/24 10:17:52;;;;;;;23.08;4.53;;;19.70;99.90;;;;;;4901837;29;20201;-71
2022/12/24 10:20:32;;;;;;;11.40;3.88;;;19.70;99.90;;;;;;4901860;29;20562;-72
2022/12/24 10:23:07;;;;;;;20.30;4.45;;;19.80;99.90;;;;;;4901803;29;20244;-72
2022/12/24 10:25:41;;;;;;;22.73;4.95;;;19.90;99.90;;;;;;4901936;29;20190;-73
2022/12/24 10:28:14;;;;;;;14.40;4.05;;;20.10;99.90;;;;;;4901680;29;20739;-72
2022/12/24 10:30:42;;;;;;;14.55;4.07;;;20.10;99.90;;;;;;4901718;29;20189;-71
2022/12/24 10:33:16;;;;;;;13.80;4.20;;;20.10;99.90;;;;;;4901731;29;20206;-72
2022/12/24 10:35:47;;;;;;;20.02;4.93;;;20.10;99.90;;;;;;4900549;29;20197;-71
2022/12/24 10:38:15;;;;;;;9.35;3.85;;;20.20;99.90;;;;;;4901778;29;20248;-72
2022/12/24 10:40:45;;;;;;;24.77;4.30;;;20.20;99.90;;;;;;4901823;29;20306;-75
2022/12/24 10:43:15;;;;;;;54.45;4.80;;;20.20;99.90;;;;;;4901695;29;20225;-73
2022/12/24 10:45:46;;;;;;;47.33;5.25;;;20.30;99.90;;;;;;4901528;29;20197;-72
2022/12/24 10:48:21;;;;;;;32.25;4.80;;;20.30;99.90;;;;;;4901235;29;20237;-75
2022/12/24 10:50:54;;;;;;;24.50;4.78;;;20.30;99.90;;;;;;4902407;29;20618;-76
2022/12/24 10:53:28;;;;;;;23.33;5.35;;;20.30;99.90;;;;;;4902097;29;20197;-76
2022/12/24 10:56:03;;;;;;;26.50;4.95;;;20.40;99.90;;;;;;4903973;29;20220;-75
2022/12/24 10:58:31;;;;;;;16.50;4.97;;;20.50;99.90;;;;;;4905031;29;20260;-73
2022/12/24 11:00:57;;;;;;;19.25;3.47;;;20.50;99.90;;;;;;4905127;29;20212;-73
2022/12/24 11:03:30;;;;;;;21.85;5.03;;;20.50;99.90;;;;;;4904202;29;20226;-74
2022/12/24 11:06:06;;;;;;;19.13;4.05;;;20.60;99.90;;;;;;4903246;29;20198;-74
2022/12/24 11:08:34;;;;;;;26.10;5.13;;;20.50;99.90;;;;;;4902215;29;20236;-75
2022/12/24 11:11:04;;;;;;;21.60;4.90;;;20.60;99.90;;;;;;4901377;29;20624;-75
2022/12/24 11:13:34;;;;;;;16.45;4.50;;;20.60;99.90;;;;;;4901301;29;20708;-76
2022/12/24 11:16:04;;;;;;;22.60;4.40;;;20.60;99.90;;;;;;4902760;29;20202;-77
2022/12/24 11:18:34;;;;;;;18.20;4.57;;;20.60;99.90;;;;;;4905092;29;20233;-78
2022/12/24 11:21:02;;;;;;;10.88;3.65;;;20.60;99.90;;;;;;4903763;29;20210;-76
2022/12/24 11:23:29;;;;;;;18.60;4.22;;;20.50;99.90;;;;;;4903411;29;20229;-75
2022/12/24 11:25:58;;;;;;;15.90;4.20;;;20.60;99.90;;;;;;4902814;29;20209;-74
2022/12/24 11:28:27;;;;;;;15.52;3.55;;;20.60;99.90;;;;;;4904757;29;20229;-69
2022/12/24 11:31:03;;;;;;;12.30;3.40;;;20.60;99.90;;;;;;4904307;29;20212;-73
2022/12/24 11:33:31;;;;;;;9.48;3.65;;;20.50;99.90;;;;;;4904764;29;20189;-76
2022/12/24 11:36:02;;;;;;;14.30;4.18;;;20.60;99.90;;;;;;4905176;29;20201;-77
2022/12/24 11:38:30;;;;;;;17.73;3.60;;;20.50;99.90;;;;;;4904070;29;20257;-77
2022/12/24 11:41:11;;;;;;;10.35;3.80;;;20.50;99.90;;;;;;4906748;29;20209;-75
2022/12/24 11:43:46;;;;;;;9.63;3.35;;;20.50;99.90;;;;;;4907525;29;20251;-80
2022/12/24 11:46:19;;;;;;;14.52;3.22;;;20.50;99.90;;;;;;4908923;29;20194;-78
2022/12/24 11:48:47;;;;;;;9.02;3.10;;;20.50;99.90;;;;;;4903125;29;20240;-80
2022/12/24 11:51:22;;;;;;;10.40;3.10;;;20.40;99.90;;;;;;4903971;29;20234;-78
2022/12/24 11:53:52;;;;;;;15.68;3.28;;;20.40;99.90;;;;;;4904264;29;20205;-78
2022/12/24 11:56:32;;;;;;;19.25;3.78;;;20.50;99.90;;;;;;4902544;29;20569;-78
2022/12/24 11:59:03;;;;;;;22.92;3.03;;;20.40;99.90;;;;;;4902991;29;20244;-75
2022/12/24 12:01:36;;;;;;;20.60;3.33;;;20.40;99.90;;;;;;4902867;29;20210;-76
2022/12/24 12:04:06;;;;;;;12.27;3.13;;;20.30;99.90;;;;;;4902693;29;20190;-76
2022/12/24 12:06:38;;;;;;;14.45;3.55;;;20.30;99.90;;;;;;4904485;29;20558;-77
2022/12/24 12:09:11;;;;;;;12.90;3.20;;;20.30;99.90;;;;;;4902981;29;20232;-76
2022/12/24 12:11:44;;;;;;;8.10;2.70;;;20.40;99.90;;;;;;4903472;29;20193;-75
2022/12/24 12:14:18;;;;;;;15.02;3.13;;;20.40;99.90;;;;;;4906098;29;20249;-75
2022/12/24 12:17:06;;;;;;;18.42;2.95;;;20.40;99.90;;;;;;4904944;29;20239;-75
2022/12/24 12:19:41;;;;;;;7.10;2.85;;;20.50;99.90;;;;;;4905610;29;20226;-75
2022/12/24 12:22:17;;;;;;;11.77;3.25;;;20.50;99.90;;;;;;4903988;29;20304;-75
2022/12/24 12:24:50;;;;;;;9.50;2.60;;;20.50;99.90;;;;;;4902534;29;20229;-75
2022/12/24 12:27:23;;;;;;;7.00;2.95;;;20.50;99.90;;;;;;4902085;29;20201;-76
2022/12/24 12:29:57;;;;;;;11.43;3.10;;;20.50;99.90;;;;;;4902043;29;20229;-78
2022/12/24 12:32:30;;;;;;;13.90;3.00;;;20.50;99.90;;;;;;4900092;29;20181;-76
2022/12/24 12:35:05;;;;;;;12.60;3.00;;;20.50;99.90;;;;;;4899865;29;20204;-75
2022/12/24 12:37:36;;;;;;;11.93;2.83;;;20.40;99.90;;;;;;4900006;29;20200;-80
2022/12/24 12:40:11;;;;;;;9.45;2.80;;;20.40;99.90;;;;;;4901230;29;20257;-77
2022/12/24 12:42:40;;;;;;;11.23;2.70;;;20.40;99.90;;;;;;4901377;29;20213;-76
2022/12/24 12:45:23;;;;;;;12.57;3.17;;;20.40;99.90;;;;;;4900234;29;20213;-75
2022/12/24 12:48:02;;;;;;;13.63;3.20;;;20.40;99.90;;;;;;4900401;29;20216;-76
2022/12/24 12:50:34;;;;;;;4.47;2.50;;;20.50;99.90;;;;;;4900260;29;20190;-76
2022/12/24 12:53:23;;;;;;;11.80;3.03;;;20.50;99.90;;;;;;4900707;29;20270;-78
2022/12/24 12:55:57;;;;;;;15.98;3.00;;;20.40;99.90;;;;;;4899099;29;20190;-76
2022/12/24 12:58:30;;;;;;;11.70;2.70;;;20.80;99.90;;;;;;4901037;29;20232;-77
2022/12/24 13:01:03;;;;;;;7.35;2.70;;;20.50;99.90;;;;;;4901461;29;20217;-77
2022/12/24 13:03:55;;;;;;;6.68;2.60;;;20.60;99.90;;;;;;4900673;29;20210;-77
2022/12/24 13:06:45;;;;;;;5.20;2.47;;;20.60;99.90;;;;;;4899367;29;20194;-80
2022/12/24 13:09:38;;;;;;;5.20;2.00;;;20.70;99.90;;;;;;4899321;29;20232;-78
2022/12/24 13:12:28;;;;;;;9.40;2.15;;;20.80;99.90;;;;;;4898785;29;20217;-78
2022/12/24 13:15:06;;;;;;;11.82;3.05;;;20.80;99.90;;;;;;4899956;29;20186;-78
2022/12/24 13:17:54;;;;;;;8.55;2.42;;;20.90;99.90;;;;;;4902161;29;20186;-81
2022/12/24 13:20:25;;;;;;;3.38;1.75;;;20.80;99.90;;;;;;4901686;29;20193;-82
2022/12/24 13:22:58;;;;;;;10.57;2.10;;;22.50;99.90;;;;;;4901238;29;20221;-74
2022/12/24 13:25:30;;;;;;;22.85;2.00;;;21.30;99.90;;;;;;4901906;29;20649;-75
2022/12/24 13:27:56;;;;;;;22.48;2.60;;;21.00;99.90;;;;;;4923272;23;20234;-76
2022/12/24 13:30:36;;;;;;;25.30;2.90;;;21.10;99.90;;;;;;4899502;29;20580;-77
2022/12/24 13:33:04;;;;;;;22.63;2.25;;;21.10;99.90;;;;;;4902794;29;20190;-77
2022/12/24 13:35:36;;;;;;;20.02;2.75;;;21.20;99.90;;;;;;4898758;29;20209;-77
2022/12/24 13:38:42;;;;;;;18.25;2.50;;;21.20;99.90;;;;;;4898412;29;20229;-77
2022/12/24 13:41:38;;;;;;;22.48;2.63;;;21.20;99.90;;;;;;4898388;29;20637;-77
2022/12/24 13:44:19;;;;;;;14.13;2.25;;;21.20;99.90;;;;;;4898625;29;20225;-77
2022/12/24 13:46:51;;;;;;;12.95;1.75;;;21.20;99.90;;;;;;4902231;29;20201;-74
2022/12/24 13:49:20;;;;;;;12.63;2.70;;;21.30;99.90;;;;;;4902227;29;20189;-74
2022/12/24 13:51:48;;;;;;;7.30;2.00;;;21.30;99.90;;;;;;4902120;29;20667;-75
2022/12/24 13:54:24;;;;;;;10.95;2.10;;;21.30;99.90;;;;;;4901798;29;20577;-74
2022/12/24 13:56:51;;;;;;;19.60;2.28;;;21.30;99.90;;;;;;4901755;29;20683;-74
2022/12/24 13:59:33;;;;;;;7.65;1.67;;;21.40;99.90;;;;;;4902062;29;20206;-74
2022/12/24 14:02:02;;;;;;;9.35;2.97;;;21.40;99.90;;;;;;4902019;29;20204;-77
2022/12/24 14:04:33;;;;;;;5.65;1.83;;;21.40;99.90;;;;;;4902183;29;20257;-75
2022/12/24 14:07:02;;;;;;;9.90;1.38;;;21.40;99.90;;;;;;4901840;29;20232;-74
2022/12/24 14:09:30;;;;;;;12.77;2.20;;;21.40;99.90;;;;;;4901894;29;20206;-75
2022/12/24 14:12:31;;;;;;;8.18;1.73;;;21.40;99.90;;;;;;4901799;29;20202;-75
2022/12/24 14:14:57;;;;;;;7.07;1.60;;;21.40;99.90;;;;;;4901773;29;20213;-76
2022/12/24 14:17:28;;;;;;;7.32;1.85;;;21.20;99.90;;;;;;4901639;29;20228;-76
2022/12/24 16:31:37;;;;;;;4.50;1.40;;;20.10;99.30;;;;;;5624125;23;20320;-75
2022/12/24 16:34:05;;;;;;;8.68;1.30;;;20.10;99.60;;;;;;4899194;29;20214;-75
2022/12/24 16:36:32;;;;;;;5.95;1.27;;;20.10;99.50;;;;;;4899688;29;20213;-75
2022/12/24 16:44:28;;;;;;;8.73;1.38;;;20.00;99.70;;;;;;4922537;23;20232;-74
2022/12/24 16:46:59;;;;;;;8.68;1.42;;;20.10;99.70;;;;;;4898301;29;20209;-74
2022/12/24 16:49:27;;;;;;;6.50;1.48;;;20.10;99.60;;;;;;4898431;29;20189;-76
2022/12/24 16:51:54;;;;;;;4.93;1.20;;;20.10;99.60;;;;;;4898276;29;20233;-76
2022/12/24 16:54:21;;;;;;;3.17;1.23;;;20.10;99.60;;;;;;4898030;29;20228;-76
2022/12/24 16:56:48;;;;;;;17.35;1.40;;;20.10;99.70;;;;;;4898028;29;20261;-77
2022/12/24 16:59:17;;;;;;;5.15;1.35;;;20.10;99.70;;;;;;4897908;29;20209;-77
2022/12/24 17:01:44;;;;;;;2.70;1.42;;;20.10;99.80;;;;;;4897863;29;20237;-77
2022/12/24 17:04:12;;;;;;;4.30;1.30;;;20.10;99.90;;;;;;4897406;29;20723;-77
2022/12/24 17:06:39;;;;;;;8.23;1.33;;;20.10;99.90;;;;;;4897739;29;20241;-76
2022/12/24 17:09:07;;;;;;;7.90;1.20;;;20.10;99.90;;;;;;4897546;29;20692;-76
2022/12/24 17:11:34;;;;;;;2.85;1.10;;;20.10;99.90;;;;;;4897841;29;20205;-76
2022/12/24 17:14:01;;;;;;;6.90;1.23;;;20.10;99.90;;;;;;4898412;29;20221;-76
2022/12/24 17:16:27;;;;;;;5.72;1.48;;;20.10;99.90;;;;;;4898074;29;20222;-76
2022/12/24 17:18:57;;;;;;;6.13;1.27;;;20.10;99.90;;;;;;4896933;29;20202;-76
2022/12/24 17:21:26;;;;;;;10.93;1.40;;;20.10;99.40;;;;;;4897602;29;20258;-76
2022/12/24 17:23:52;;;;;;;5.15;1.10;;;20.10;99.50;;;;;;4897479;29;20237;-76
2022/12/24 17:26:19;;;;;;;7.50;1.40;;;20.10;99.50;;;;;;4897634;29;20220;-76
2022/12/24 17:28:46;;;;;;;6.70;1.40;;;20.10;99.60;;;;;;4897259;29;20569;-75
2022/12/24 17:31:15;;;;;;;4.97;1.13;;;20.10;99.40;;;;;;4897637;29;20202;-75
2022/12/24 17:33:42;;;;;;;7.05;1.25;;;20.20;99.50;;;;;;4897417;29;20202;-75
2022/12/24 17:36:09;;;;;;;6.82;1.17;;;20.10;99.40;;;;;;4897675;29;20209;-76
2022/12/24 17:38:37;;;;;;;5.05;1.50;;;20.10;99.30;;;;;;4897599;29;20212;-76
2022/12/24 17:41:06;;;;;;;7.70;1.30;;;20.20;99.40;;;;;;4897662;29;20206;-76
2022/12/24 17:43:33;;;;;;;6.43;1.02;;;20.10;99.40;;;;;;4862632;29;1022938;-76
2022/12/24 17:46:03;;;;;;;7.40;1.23;;;20.20;99.60;;;;;;4898337;29;20196;-76
2022/12/24 17:48:29;;;;;;;3.97;1.25;;;20.20;99.50;;;;;;4898328;29;20213;-76
2022/12/24 17:50:56;;;;;;;7.85;1.27;;;20.10;99.60;;;;;;4898346;29;20209;-76
2022/12/24 17:53:23;;;;;;;4.00;0.98;;;20.20;99.60;;;;;;4898282;29;20209;-76
2022/12/24 17:55:51;;;;;;;3.92;0.85;;;20.20;99.60;;;;;;4898139;29;20285;-76
2022/12/24 17:58:17;;;;;;;4.57;1.08;;;20.20;99.70;;;;;;4898367;29;20205;-76
2022/12/24 18:00:44;;;;;;;4.30;1.40;;;20.20;99.60;;;;;;4898292;29;20201;-76
2022/12/24 18:03:13;;;;;;;6.07;1.20;;;20.20;99.70;;;;;;4898239;29;20229;-76
2022/12/24 18:05:40;;;;;;;4.32;1.00;;;20.20;99.60;;;;;;4897798;29;20755;-75
2022/12/24 18:08:07;;;;;;;10.93;1.75;;;20.20;99.70;;;;;;4897953;29;20570;-75
2022/12/24 18:10:33;;;;;;;7.57;1.08;;;20.20;99.60;;;;;;4898381;29;20216;-75
2022/12/24 18:13:02;;;;;;;9.15;1.48;;;20.20;99.60;;;;;;4897972;29;20208;-75
2022/12/24 18:15:28;;;;;;;5.03;1.30;;;20.20;99.90;;;;;;4898241;29;20232;-75
2022/12/24 18:17:58;;;;;;;4.75;1.05;;;20.20;99.60;;;;;;4897641;29;20689;-75
2022/12/24 18:20:24;;;;;;;10.65;1.10;;;20.10;99.70;;;;;;4897920;29;20762;-78
2022/12/24 18:22:51;;;;;;;5.80;1.65;;;20.10;99.80;;;;;;4898268;29;20202;-76
2022/12/24 18:25:20;;;;;;;14.48;1.85;;;20.00;99.80;;;;;;4897963;29;20225;-75
2022/12/24 18:27:47;;;;;;;8.93;2.08;;;20.10;99.90;;;;;;4898075;29;20229;-74
2022/12/24 18:30:16;;;;;;;16.42;2.15;;;20.10;99.90;;;;;;4898584;29;20210;-74
2022/12/24 18:32:43;;;;;;;14.00;2.67;;;20.00;99.90;;;;;;4901360;29;20213;-75
2022/12/24 18:35:10;;;;;;;11.52;2.38;;;20.00;99.90;;;;;;4901688;29;20233;-76
2022/12/24 18:37:37;;;;;;;13.60;3.00;;;20.00;99.90;;;;;;4901131;29;20614;-75
2022/12/24 18:40:04;;;;;;;7.88;2.17;;;20.00;99.90;;;;;;4901336;29;20217;-75
2022/12/24 18:42:31;;;;;;;13.50;2.90;;;20.00;99.90;;;;;;4900983;29;20233;-75
2022/12/24 18:44:58;;;;;;;8.13;2.50;;;20.00;99.90;;;;;;4900900;29;20296;-75
2022/12/24 18:47:26;;;;;;;6.55;2.20;;;20.00;99.90;;;;;;4901450;29;20209;-75
2022/12/24 18:49:53;;;;;;;8.75;2.58;;;20.00;99.90;;;;;;4900995;29;20550;-75
2022/12/24 18:52:20;;;;;;;4.55;2.17;;;20.00;99.90;;;;;;4901308;29;20209;-75
2022/12/24 18:54:48;;;;;;;6.82;2.55;;;20.00;99.90;;;;;;4900828;29;20705;-75
2022/12/24 18:57:15;;;;;;;8.50;2.53;;;20.00;99.90;;;;;;4901070;29;20208;-75
2022/12/24 18:59:41;;;;;;;9.90;2.80;;;20.00;99.90;;;;;;4900703;29;20696;-75
2022/12/24 19:02:09;;;;;;;7.20;2.17;;;20.00;99.90;;;;;;4900969;29;20576;-77
2022/12/24 19:04:37;;;;;;;7.82;2.83;;;20.00;99.90;;;;;;4901375;29;20596;-78
2022/12/24 19:07:04;;;;;;;14.73;2.85;;;20.00;99.90;;;;;;4901207;29;20206;-77
2022/12/24 19:09:31;;;;;;;11.95;2.55;;;20.00;99.90;;;;;;4901047;29;20202;-77
2022/12/24 19:11:58;;;;;;;7.15;2.53;;;20.00;99.90;;;;;;4901136;29;20216;-78
2022/12/24 19:14:24;;;;;;;11.35;2.58;;;19.90;99.90;;;;;;4901391;29;20229;-77
2022/12/24 19:16:51;;;;;;;7.20;2.70;;;19.90;99.90;;;;;;4900495;29;20617;-78
2022/12/24 19:19:22;;;;;;;10.85;2.78;;;19.80;99.90;;;;;;4900976;29;20201;-77
2022/12/24 19:21:50;;;;;;;10.88;2.67;;;19.80;99.90;;;;;;4900550;29;20616;-78
2022/12/24 19:24:17;;;;;;;9.50;2.72;;;19.80;99.90;;;;;;4901092;29;20245;-77
2022/12/24 19:26:44;;;;;;;9.40;2.75;;;19.90;99.90;;;;;;4900390;29;20673;-77
2022/12/24 19:29:10;;;;;;;9.13;2.45;;;19.80;99.90;;;;;;4900790;29;20215;-77
2022/12/24 19:31:37;;;;;;;8.48;2.25;;;19.80;99.90;;;;;;4900642;29;20689;-78
2022/12/24 19:34:04;;;;;;;6.60;2.47;;;19.80;99.90;;;;;;4900593;29;20225;-77
2022/12/24 19:36:31;;;;;;;6.53;2.85;;;19.80;99.90;;;;;;4900787;29;20209;-77
2022/12/24 19:38:59;;;;;;;7.57;2.65;;;19.80;99.90;;;;;;4900600;29;20210;-77
2022/12/24 19:41:28;;;;;;;6.18;2.70;;;19.80;99.90;;;;;;4900300;29;20202;-77
2022/12/24 19:43:57;;;;;;;6.20;2.58;;;19.80;99.90;;;;;;4899667;29;20604;-77
2022/12/24 19:46:26;;;;;;;4.35;2.28;;;19.80;99.90;;;;;;4900515;29;20190;-77
2022/12/24 19:48:55;;;;;;;11.20;2.42;;;19.80;99.90;;;;;;4900166;29;20666;-77
2022/12/24 19:51:23;;;;;;;7.82;2.60;;;19.80;99.90;;;;;;4900968;29;20206;-77
2022/12/24 19:53:51;;;;;;;8.55;2.58;;;19.70;99.90;;;;;;4900143;29;20226;-76
2022/12/24 19:56:20;;;;;;;8.32;2.30;;;19.70;99.90;;;;;;4900265;29;20257;-76
2022/12/24 19:58:47;;;;;;;8.63;2.55;;;19.70;99.90;;;;;;4900583;29;20225;-76
2022/12/24 20:01:16;;;;;;;8.25;2.10;;;19.80;99.90;;;;;;4900716;29;20214;-76
2022/12/24 20:03:43;;;;;;;5.60;2.25;;;19.70;99.90;;;;;;4900131;29;20212;-76
2022/12/24 20:06:10;;;;;;;8.48;2.70;;;19.70;99.90;;;;;;4899617;29;20689;-76
2022/12/24 20:08:38;;;;;;;7.57;2.40;;;19.70;99.90;;;;;;4900344;29;20213;-76
2022/12/24 20:11:05;;;;;;;5.47;2.17;;;19.70;99.90;;;;;;4899863;29;20213;-76
2022/12/24 20:13:33;;;;;;;4.95;2.30;;;19.60;99.80;;;;;;4899836;29;20202;-77
2022/12/24 20:16:05;;;;;;;7.22;2.40;;;19.70;99.40;;;;;;4899629;29;20693;-76
2022/12/24 20:18:31;;;;;;;3.80;2.13;;;19.70;99.10;;;;;;4899636;29;20213;-76
2022/12/24 20:20:58;;;;;;;6.20;2.05;;;19.70;99.20;;;;;;4899608;29;20220;-76
2022/12/24 20:23:25;;;;;;;5.07;2.00;;;19.70;99.10;;;;;;4899563;29;20215;-76
2022/12/24 20:25:57;;;;;;;5.85;2.13;;;19.70;99.30;;;;;;4899421;29;20240;-76
2022/12/24 20:28:23;;;;;;;9.07;2.72;;;19.70;99.30;;;;;;4899467;29;20261;-77
2022/12/24 20:30:52;;;;;;;13.40;2.42;;;19.80;99.90;;;;;;4899985;29;20205;-77
2022/12/24 20:33:19;;;;;;;10.35;3.25;;;20.00;99.90;;;;;;4899527;29;20218;-77
2022/12/24 20:35:46;;;;;;;16.45;2.38;;;20.10;99.90;;;;;;4900160;29;20229;-76
2022/12/24 20:38:12;;;;;;;19.85;3.80;;;20.30;99.90;;;;;;4900100;29;20213;-76
2022/12/24 20:40:40;;;;;;;19.02;3.03;;;20.30;99.90;;;;;;4899343;29;20209;-76